Sw Cap Ferrat 1 — 3FZK6 — position and weather

sailwx.info

Track history (hours):
 
Tides and Currents Weather Stations Pressure Air Temp Water Temp Dewpoint Dewpoint Depression Visibility Wind Speed Wind Dir Waves Ship Positions

Sw Cap Ferrat 1

Last reported at 2016-Dec-05 22:30 UTC. Time now 2016-Dec-07 16:29 UTC.
Position N 51°31' W 005°30'.

Length 183 m; draft 7.3 m.

Type: Ship (hazmat cat C). MMSI: 374419000.

Date/timePositionNaut miles runAvg speedWind from/ knotsBaromVisibWave heightAir tempDewpointWater temp
2016-Dec-05 22:30N 51°31' W 005°30'3 2.8
2016-Dec-05 21:30N 51°28' W 005°29'1 1.3
2016-Dec-05 20:33N 51°28' W 005°27'114 3.2
2016-Dec-04 09:27N 49°47' W 006°49'1311.8
2016-Dec-04 08:23N 49°44' W 006°30'1312.6
2016-Dec-04 07:24N 49°44' W 006°11'1012.4
2016-Dec-04 06:33N 49°45' W 005°55'1312.7
2016-Dec-04 05:30N 49°45' W 005°34'1212.3
2016-Dec-04 04:32N 49°45' W 005°16'1412.7
2016-Dec-04 03:27N 49°44' W 004°55'1313.6
2016-Dec-04 02:30N 49°44' W 004°35'1713.8
2016-Dec-04 01:18N 49°45' W 004°09'1013.8
2016-Dec-04 00:33N 49°48' W 003°54'1313.4
2016-Dec-03 23:33N 49°52' W 003°34'1312.6
2016-Dec-03 22:33N 49°55' W 003°15'1111.2
2016-Dec-03 21:33N 49°56' W 002°57'1110.3
2016-Dec-03 20:28N 49°60' W 002°41'2612.5
2016-Dec-03 18:21N 50°09' W 002°03'2715.1
2016-Dec-03 16:33N 50°17' W 001°22'1816.0
2016-Dec-03 15:27N 50°22' W 000°56'1414.9
2016-Dec-03 14:33N 50°25' W 000°35'1414.0
2016-Dec-03 13:33N 50°29' W 000°14'1312.8
2016-Dec-03 12:33N 50°32' E 000°05'1211.8
2016-Dec-03 11:33N 50°35' E 000°23'2511.8
2016-Dec-03 09:24N 50°48' E 000°58'1214.0
2016-Dec-03 08:33N 50°54' E 001°15'1514.9
2016-Dec-03 07:33N 51°04' E 001°32'1414.0
2016-Dec-03 06:33N 51°14' E 001°47'1212.4
2016-Dec-03 05:34N 51°24' E 001°59'1211.6
2016-Dec-03 04:34N 51°20' E 002°17'1111.4
2016-Dec-03 03:33N 51°23' E 002°35'1110.9
2016-Dec-03 02:33N 51°23' E 002°52'1111.2
2016-Dec-03 01:33N 51°24' E 003°10'1111.3
2016-Dec-03 00:33N 51°25' E 003°28'9 9.1
2016-Dec-02 23:33N 51°25' E 003°43'7 6.3
2016-Dec-02 22:31N 51°20' E 003°49'1 0.7
2016-Dec-02 21:34N 51°19' E 003°50'4 4.4
2016-Dec-02 20:33N 51°15' E 003°49'6 6.4
2016-Dec-02 19:34N 51°09' E 003°47'4 3.7
2016-Dec-02 18:33N 51°05' E 003°44'0 0.0
2016-Dec-02 17:27N 51°05' E 003°44'0 0.0
2016-Dec-02 16:30N 51°05' E 003°44'0 0.0
2016-Dec-02 15:30N 51°05' E 003°44'0 0.0
2016-Dec-02 14:15N 51°05' E 003°44'0 0.0
2016-Dec-02 13:27N 51°05' E 003°44'0 0.0
2016-Dec-02 12:30N 51°05' E 003°44'0 0.0
2016-Dec-02 11:33N 51°05' E 003°44'0 0.0
2016-Dec-02 10:33N 51°05' E 003°44'0 0.0
2016-Dec-02 09:21N 51°05' E 003°44'0 0.0
2016-Dec-02 08:33N 51°05' E 003°44'0 0.0
2016-Dec-02 07:24N 51°05' E 003°44'0 0.0
2016-Dec-02 06:33N 51°05' E 003°44'0 0.0
2016-Dec-02 05:33N 51°05' E 003°44'0 0.0
2016-Dec-02 04:27N 51°05' E 003°44'0 0.0
2016-Dec-02 03:15N 51°05' E 003°44'0 0.0
2016-Dec-02 02:27N 51°05' E 003°44'0 0.0
2016-Dec-02 01:24N 51°05' E 003°44'0 0.0
2016-Dec-02 00:33N 51°05' E 003°44'4 3.7
2016-Dec-01 23:33N 51°08' E 003°47'7 6.6
2016-Dec-01 22:34N 51°15' E 003°49'5 4.9
2016-Dec-01 21:33N 51°20' E 003°49'2 1.7
2016-Dec-01 20:33N 51°21' E 003°47'8 7.7
2016-Dec-01 19:33N 51°26' E 003°38'9 8.8
2016-Dec-01 18:33N 51°24' E 003°24'1110.7
2016-Dec-01 17:33N 51°24' E 003°07'1212.1
2016-Dec-01 16:33N 51°25' E 002°48'7 6.6
2016-Dec-01 15:33N 51°22' E 002°38'4 4.1
2016-Dec-01 14:33N 51°22' E 002°32'10 9.8
2016-Dec-01 13:33N 51°18' E 002°18'1414.3
2016-Dec-01 12:33N 51°11' E 001°58'1514.8
2016-Dec-01 11:33N 51°01' E 001°40'1413.9
2016-Dec-01 10:33N 50°50' E 001°26'1412.9
2016-Dec-01 09:29N 50°38' E 001°16'1313.4
2016-Dec-01 08:29N 50°30' E 000°60'1313.5
2016-Dec-01 07:33N 50°26' E 000°41'1313.0
2016-Dec-01 06:33N 50°22' E 000°21'1212.4
2016-Dec-01 05:33N 50°18' E 000°03'1211.8
2016-Dec-01 04:33N 50°12' W 000°13'1211.6
2016-Dec-01 03:33N 50°03' W 000°25'1212.1
2016-Dec-01 02:33N 49°52' W 000°31'14 7.1
2016-Dec-01 00:33N 49°38' W 000°25'1111.4
2016-Nov-30 23:33N 49°31' W 000°12'1010.0
2016-Nov-30 22:33N 49°27' E 000°02'10 9.8
2016-Nov-30 21:33N 49°26' E 000°17'7 6.8
2016-Nov-30 20:33N 49°28' E 000°27'5 4.9
2016-Nov-30 19:33N 49°27' E 000°34'8 7.6
2016-Nov-30 18:27N 49°31' E 000°45'5 0.1
2016-Nov-28 22:30N 49°26' E 000°48'6 5.7
2016-Nov-28 21:26N 49°29' E 000°40'6 6.6
2016-Nov-28 20:33N 49°29' E 000°31'1111.4
2016-Nov-28 19:33N 49°26' E 000°14'1110.7
2016-Nov-28 18:33N 49°28' W 000°02'5 5.0
2016-Nov-28 17:33N 49°29' W 000°10'0 0.1
2016-Nov-28 16:33N 49°29' W 000°10'0 0.0
2016-Nov-28 15:33N 49°29' W 000°10'0 0.0
2016-Nov-28 14:33N 49°29' W 000°10'0 0.0
2016-Nov-28 13:33N 49°29' W 000°10'3 3.1
2016-Nov-28 12:34N 49°31' W 000°13'1010.4
2016-Nov-28 11:33N 49°37' W 000°26'1110.6
2016-Nov-28 10:33N 49°44' W 000°39'1111.3
2016-Nov-28 09:33N 49°47' W 000°56'1212.4
2016-Nov-28 08:33N 49°50' W 001°14'1313.4
2016-Nov-28 07:33N 49°54' W 001°35'1414.0
2016-Nov-28 06:34N 49°57' W 001°56'3113.1
2016-Nov-28 04:13N 49°50' W 002°42'2011.7
2016-Nov-28 02:28N 49°44' W 003°12'1110.7
2016-Nov-28 01:25N 49°43' W 003°29'2010.4
2016-Nov-27 23:28N 49°38' W 003°60'2010.0
2016-Nov-27 21:27N 49°32' W 004°29'31 9.8
2016-Nov-27 18:16N 49°23' W 005°15'  
Track history (hours):
 
Tides and Currents Weather Stations Pressure Air Temp Water Temp Dewpoint Dewpoint Depression Visibility Wind Speed Wind Dir Waves Ship Positions

Sw Cap Ferrat 1

Last reported at 2016-Dec-05 22:30 UTC. Time now 2016-Dec-07 16:29 UTC.
Position N 51°31' W 005°30'.

Length 183 m; draft 7.3 m.

Type: Ship (hazmat cat C). MMSI: 374419000.

Date/timePositionNaut miles runAvg speedWind from/ knotsBaromVisibWave heightAir tempDewpointWater temp
2016-Dec-05 22:30N 51°31' W 005°30'3 2.8
2016-Dec-05 21:30N 51°28' W 005°29'1 1.3
2016-Dec-05 20:33N 51°28' W 005°27'114 3.2
2016-Dec-04 09:27N 49°47' W 006°49'1311.8
2016-Dec-04 08:23N 49°44' W 006°30'1312.6
2016-Dec-04 07:24N 49°44' W 006°11'1012.4
2016-Dec-04 06:33N 49°45' W 005°55'1312.7
2016-Dec-04 05:30N 49°45' W 005°34'1212.3
2016-Dec-04 04:32N 49°45' W 005°16'1412.7
2016-Dec-04 03:27N 49°44' W 004°55'1313.6
2016-Dec-04 02:30N 49°44' W 004°35'1713.8
2016-Dec-04 01:18N 49°45' W 004°09'1013.8
2016-Dec-04 00:33N 49°48' W 003°54'1313.4
2016-Dec-03 23:33N 49°52' W 003°34'1312.6
2016-Dec-03 22:33N 49°55' W 003°15'1111.2
2016-Dec-03 21:33N 49°56' W 002°57'1110.3
2016-Dec-03 20:28N 49°60' W 002°41'2612.5
2016-Dec-03 18:21N 50°09' W 002°03'2715.1
2016-Dec-03 16:33N 50°17' W 001°22'1816.0
2016-Dec-03 15:27N 50°22' W 000°56'1414.9
2016-Dec-03 14:33N 50°25' W 000°35'1414.0
2016-Dec-03 13:33N 50°29' W 000°14'1312.8
2016-Dec-03 12:33N 50°32' E 000°05'1211.8
2016-Dec-03 11:33N 50°35' E 000°23'2511.8
2016-Dec-03 09:24N 50°48' E 000°58'1214.0
2016-Dec-03 08:33N 50°54' E 001°15'1514.9
2016-Dec-03 07:33N 51°04' E 001°32'1414.0
2016-Dec-03 06:33N 51°14' E 001°47'1212.4
2016-Dec-03 05:34N 51°24' E 001°59'1211.6
2016-Dec-03 04:34N 51°20' E 002°17'1111.4
2016-Dec-03 03:33N 51°23' E 002°35'1110.9
2016-Dec-03 02:33N 51°23' E 002°52'1111.2
2016-Dec-03 01:33N 51°24' E 003°10'1111.3
2016-Dec-03 00:33N 51°25' E 003°28'9 9.1
2016-Dec-02 23:33N 51°25' E 003°43'7 6.3
2016-Dec-02 22:31N 51°20' E 003°49'1 0.7
2016-Dec-02 21:34N 51°19' E 003°50'4 4.4
2016-Dec-02 20:33N 51°15' E 003°49'6 6.4
2016-Dec-02 19:34N 51°09' E 003°47'4 3.7
2016-Dec-02 18:33N 51°05' E 003°44'0 0.0
2016-Dec-02 17:27N 51°05' E 003°44'0 0.0
2016-Dec-02 16:30N 51°05' E 003°44'0 0.0
2016-Dec-02 15:30N 51°05' E 003°44'0 0.0
2016-Dec-02 14:15N 51°05' E 003°44'0 0.0
2016-Dec-02 13:27N 51°05' E 003°44'0 0.0
2016-Dec-02 12:30N 51°05' E 003°44'0 0.0
2016-Dec-02 11:33N 51°05' E 003°44'0 0.0
2016-Dec-02 10:33N 51°05' E 003°44'0 0.0
2016-Dec-02 09:21N 51°05' E 003°44'0 0.0
2016-Dec-02 08:33N 51°05' E 003°44'0 0.0
2016-Dec-02 07:24N 51°05' E 003°44'0 0.0
2016-Dec-02 06:33N 51°05' E 003°44'0 0.0
2016-Dec-02 05:33N 51°05' E 003°44'0 0.0
2016-Dec-02 04:27N 51°05' E 003°44'0 0.0
2016-Dec-02 03:15N 51°05' E 003°44'0 0.0
2016-Dec-02 02:27N 51°05' E 003°44'0 0.0
2016-Dec-02 01:24N 51°05' E 003°44'0 0.0
2016-Dec-02 00:33N 51°05' E 003°44'4 3.7
2016-Dec-01 23:33N 51°08' E 003°47'7 6.6
2016-Dec-01 22:34N 51°15' E 003°49'5 4.9
2016-Dec-01 21:33N 51°20' E 003°49'2 1.7
2016-Dec-01 20:33N 51°21' E 003°47'8 7.7
2016-Dec-01 19:33N 51°26' E 003°38'9 8.8
2016-Dec-01 18:33N 51°24' E 003°24'1110.7
2016-Dec-01 17:33N 51°24' E 003°07'1212.1
2016-Dec-01 16:33N 51°25' E 002°48'7 6.6
2016-Dec-01 15:33N 51°22' E 002°38'4 4.1
2016-Dec-01 14:33N 51°22' E 002°32'10 9.8
2016-Dec-01 13:33N 51°18' E 002°18'1414.3
2016-Dec-01 12:33N 51°11' E 001°58'1514.8
2016-Dec-01 11:33N 51°01' E 001°40'1413.9
2016-Dec-01 10:33N 50°50' E 001°26'1412.9
2016-Dec-01 09:29N 50°38' E 001°16'1313.4
2016-Dec-01 08:29N 50°30' E 000°60'1313.5
2016-Dec-01 07:33N 50°26' E 000°41'1313.0
2016-Dec-01 06:33N 50°22' E 000°21'1212.4
2016-Dec-01 05:33N 50°18' E 000°03'1211.8
2016-Dec-01 04:33N 50°12' W 000°13'1211.6
2016-Dec-01 03:33N 50°03' W 000°25'1212.1
2016-Dec-01 02:33N 49°52' W 000°31'14 7.1
2016-Dec-01 00:33N 49°38' W 000°25'1111.4
2016-Nov-30 23:33N 49°31' W 000°12'1010.0
2016-Nov-30 22:33N 49°27' E 000°02'10 9.8
2016-Nov-30 21:33N 49°26' E 000°17'7 6.8
2016-Nov-30 20:33N 49°28' E 000°27'5 4.9
2016-Nov-30 19:33N 49°27' E 000°34'8 7.6
2016-Nov-30 18:27N 49°31' E 000°45'5 0.1
2016-Nov-28 22:30N 49°26' E 000°48'6 5.7
2016-Nov-28 21:26N 49°29' E 000°40'6 6.6
2016-Nov-28 20:33N 49°29' E 000°31'1111.4
2016-Nov-28 19:33N 49°26' E 000°14'1110.7
2016-Nov-28 18:33N 49°28' W 000°02'5 5.0
2016-Nov-28 17:33N 49°29' W 000°10'0 0.1
2016-Nov-28 16:33N 49°29' W 000°10'0 0.0
2016-Nov-28 15:33N 49°29' W 000°10'0 0.0
2016-Nov-28 14:33N 49°29' W 000°10'0 0.0
2016-Nov-28 13:33N 49°29' W 000°10'3 3.1
2016-Nov-28 12:34N 49°31' W 000°13'1010.4
2016-Nov-28 11:33N 49°37' W 000°26'1110.6
2016-Nov-28 10:33N 49°44' W 000°39'1111.3
2016-Nov-28 09:33N 49°47' W 000°56'1212.4
2016-Nov-28 08:33N 49°50' W 001°14'1313.4
2016-Nov-28 07:33N 49°54' W 001°35'1414.0
2016-Nov-28 06:34N 49°57' W 001°56'3113.1
2016-Nov-28 04:13N 49°50' W 002°42'2011.7
2016-Nov-28 02:28N 49°44' W 003°12'1110.7
2016-Nov-28 01:25N 49°43' W 003°29'2010.4
2016-Nov-27 23:28N 49°38' W 003°60'2010.0
2016-Nov-27 21:27N 49°32' W 004°29'31 9.8
2016-Nov-27 18:16N 49°23' W 005°15'  

Dump ship's entire track history